»·PEaware :: N65415 KSNA-KBUR

N65415 :: KSNA-KBUR

FLIGHT INFORMATION

Flight Status: Arrived
Operator: Privately registered:
United States
More flights under this callsign
Pilot: Stephane C. (508)
Aircraft: CESSNA 172 SKYHAWK
(C172)
More flights by this aircraft type
Origin: KSNA John Wayne-Orange Co
United States
Destination: KBUR Bob Hope-Burbank
United States
More flights between these airports :: More routes between these airports
Route: +
File this flight plan on PilotEdge
Remarks:
Altitude:
(Current/Filed)
0ft
Speed:
(Current/Filed)
0kts
Departed: 26-Jan-19 10:08 AM
Arrived: 26-Jan-19 10:47 AM
Distance/Time
Traveled:
40nm/0:39
Distance/Time
To Go:
Arrived

Flight Plot

Page will automatically refresh every two minutes.


Map Options




Map Legend


Flown Route
Filed Route
Departure Airport
Arrival Airport
Navaid (VOR, NDB)
Fix

Horizontal Profiles

Position Reports

Time Latitude Longitude Heading Altitude Ground
Speed
26-Jan-19 09:57 33.671521 -117.867198 26 60ft 0kts
26-Jan-19 09:58 33.671663 -117.867265 298 60ft 4kts
26-Jan-19 09:59 33.672034 -117.868008 302 60ft 9kts
26-Jan-19 10:00 33.673320 -117.867718 38 60ft 0kts
26-Jan-19 10:01 33.673320 -117.867718 39 60ft 0kts
26-Jan-19 10:02 33.673320 -117.867718 39 60ft 0kts
26-Jan-19 10:03 33.673396 -117.867628 49 60ft 5kts
26-Jan-19 10:04 33.677556 -117.864886 26 60ft 19kts
26-Jan-19 10:05 33.679991 -117.863681 296 60ft 0kts
26-Jan-19 10:06 33.680009 -117.863722 298 60ft 3kts
26-Jan-19 10:07 33.672978 -117.868725 207 154ft 69kts
26-Jan-19 10:08 33.659780 -117.887319 256 672ft 82kts
26-Jan-19 10:09 33.655212 -117.913513 256 1306ft 81kts
26-Jan-19 10:10 33.650230 -117.939737 260 1807ft 81kts
26-Jan-19 10:11 33.645717 -117.968700 262 2114ft 101kts
26-Jan-19 10:12 33.639944 -118.004822 262 2280ft 108kts
26-Jan-19 10:13 33.637950 -118.037532 265 2718ft 94kts
26-Jan-19 10:14 33.639067 -118.068419 273 3230ft 91kts
26-Jan-19 10:15 33.642457 -118.098844 278 3688ft 91kts
26-Jan-19 10:16 33.645379 -118.129210 275 4120ft 89kts
26-Jan-19 10:17 33.645370 -118.160216 270 4377ft 104kts
26-Jan-19 10:18 33.646983 -118.197469 277 4334ft 115kts
26-Jan-19 10:19 33.665316 -118.225945 333 4344ft 117kts
26-Jan-19 10:20 33.695200 -118.241901 338 4348ft 116kts
26-Jan-19 10:22 33.724324 -118.257904 334 4322ft 116kts
26-Jan-19 10:23 33.752375 -118.276422 330 4354ft 113kts
26-Jan-19 10:24 33.779468 -118.296656 328 4334ft 114kts
26-Jan-19 10:25 33.807184 -118.317376 328 4296ft 116kts
26-Jan-19 10:26 33.834278 -118.336789 330 4318ft 115kts
26-Jan-19 10:27 33.862928 -118.355664 332 4264ft 118kts
26-Jan-19 10:28 33.892146 -118.373921 333 4247ft 118kts
26-Jan-19 10:29 33.920925 -118.392856 324 4251ft 117kts
26-Jan-19 10:30 33.947800 -118.414753 325 4211ft 119kts
26-Jan-19 10:31 33.976350 -118.433861 332 4232ft 116kts
26-Jan-19 10:32 34.004191 -118.452707 328 4252ft 115kts
26-Jan-19 10:33 34.031651 -118.471835 332 4246ft 111kts
26-Jan-19 10:34 34.059500 -118.487013 337 3979ft 109kts
26-Jan-19 10:35 34.084888 -118.504719 287 3460ft 102kts
26-Jan-19 10:36 34.085070 -118.539651 258 3312ft 109kts
26-Jan-19 10:37 34.092980 -118.567432 14 3135ft 107kts
26-Jan-19 10:38 34.106809 -118.540085 75 2974ft 101kts
26-Jan-19 10:39 34.111410 -118.505982 82 2657ft 102kts
26-Jan-19 10:39 34.112750 -118.476942 87 2392ft 105kts
26-Jan-19 10:40 34.124158 -118.445954 57 2129ft 101kts
26-Jan-19 10:42 34.146907 -118.418698 46 1762ft 99kts
26-Jan-19 10:43 34.170338 -118.409657 4 1471ft 86kts
26-Jan-19 10:43 34.190170 -118.409558 2 1300ft 83kts
26-Jan-19 10:44 34.198132 -118.387036 93 1087ft 87kts
26-Jan-19 10:45 34.197847 -118.364648 93 780ft 42kts
26-Jan-19 10:46 34.198616 -118.360237 358 780ft 0kts
26-Jan-19 10:48 34.198891 -118.359862 87 780ft 10kts
26-Jan-19 10:48 34.199775 -118.358958 293 780ft 11kts
26-Jan-19 10:49 34.200332 -118.359497 349 780ft 0kts

Navigation Log

Ident Type
Flight plan parsing failed, navigation log unavailable